createdAt,value
2019-01-10T00:00:37.881Z,1021.8
2019-01-10T00:01:37.966Z,1021.81
2019-01-10T00:02:38.305Z,1021.85
2019-01-10T00:03:37.967Z,1021.8
2019-01-10T00:04:38.212Z,1021.79
2019-01-10T00:05:38.194Z,1021.78
2019-01-10T00:06:37.895Z,1021.85
2019-01-10T00:07:38.010Z,1021.86
2019-01-10T00:08:38.168Z,1021.9
2019-01-10T00:09:38.006Z,1021.88
2019-01-10T00:10:38.704Z,1021.87
2019-01-10T00:11:38.371Z,1021.94
2019-01-10T00:12:39.919Z,1021.92
2019-01-10T00:13:38.283Z,1021.96
2019-01-10T00:14:38.222Z,1021.94
2019-01-10T00:15:37.957Z,1021.95
2019-01-10T00:16:38.305Z,1021.98
2019-01-10T00:17:37.957Z,1021.96
2019-01-10T00:18:38.299Z,1021.98
2019-01-10T00:19:38.202Z,1022
2019-01-10T00:20:37.951Z,1021.99
2019-01-10T00:21:37.998Z,1021.98
2019-01-10T00:22:38.169Z,1021.99
2019-01-10T00:23:38.183Z,1021.98
2019-01-10T00:24:39.383Z,1021.98
2019-01-10T00:25:38.167Z,1021.97
2019-01-10T00:26:39.189Z,1021.99
2019-01-10T00:27:38.184Z,1022
2019-01-10T00:28:38.217Z,1021.98
2019-01-10T00:29:38.176Z,1021.97
2019-01-10T00:30:37.991Z,1022
2019-01-10T00:31:38.394Z,1022
2019-01-10T00:32:38.345Z,1021.99
2019-01-10T00:33:39.514Z,1022.04
2019-01-10T00:34:38.123Z,1022.07
2019-01-10T00:35:38.534Z,1022.05
2019-01-10T00:36:38.855Z,1022.03
2019-01-10T00:37:38.000Z,1022.04
2019-01-10T00:38:38.642Z,1022
2019-01-10T00:39:39.682Z,1022.04
2019-01-10T00:40:38.658Z,1022
2019-01-10T00:41:38.399Z,1022.02
2019-01-10T00:42:38.060Z,1022.06
2019-01-10T00:43:38.056Z,1022.07
2019-01-10T00:44:38.315Z,1022.09
2019-01-10T00:45:37.987Z,1022.06
2019-01-10T00:46:38.072Z,1022.04
2019-01-10T00:47:38.151Z,1022.13
2019-01-10T00:48:37.994Z,1022.11
2019-01-10T00:49:38.862Z,1022.16
2019-01-10T00:50:38.972Z,1022.18
2019-01-10T00:51:37.945Z,1022.17
2019-01-10T00:52:38.270Z,1022.2
2019-01-10T00:53:38.087Z,1022.19
2019-01-10T00:54:38.211Z,1022.15
2019-01-10T00:55:38.011Z,1022.17
2019-01-10T00:56:38.324Z,1022.2
2019-01-10T00:57:37.958Z,1022.16
2019-01-10T00:58:38.184Z,1022.17
2019-01-10T00:59:37.959Z,1022.18
2019-01-10T01:00:38.024Z,1022.19
2019-01-10T01:01:38.422Z,1022.21
2019-01-10T01:02:38.299Z,1022.23
2019-01-10T01:03:38.221Z,1022.23
2019-01-10T01:04:38.515Z,1022.27
2019-01-10T01:05:38.654Z,1022.25
2019-01-10T01:06:38.076Z,1022.26
2019-01-10T01:07:38.371Z,1022.29
2019-01-10T01:08:38.015Z,1022.28
2019-01-10T01:09:38.044Z,1022.32
2019-01-10T01:10:38.233Z,1022.33
2019-01-10T01:11:38.298Z,1022.34
2019-01-10T01:12:38.717Z,1022.36
2019-01-10T01:13:38.205Z,1022.43
2019-01-10T01:14:38.696Z,1022.42
2019-01-10T01:15:39.990Z,1022.46
2019-01-10T01:16:39.119Z,1022.41
2019-01-10T01:17:38.348Z,1022.46
2019-01-10T01:18:38.082Z,1022.45
2019-01-10T01:19:38.149Z,1022.47
2019-01-10T01:20:38.152Z,1022.45
2019-01-10T01:21:38.128Z,1022.5
2019-01-10T01:22:37.939Z,1022.56
2019-01-10T01:23:38.135Z,1022.53
2019-01-10T01:24:37.931Z,1022.57
2019-01-10T01:25:38.392Z,1022.55
2019-01-10T01:26:38.220Z,1022.54
2019-01-10T01:27:38.009Z,1022.54
2019-01-10T01:28:38.317Z,1022.54
2019-01-10T01:29:38.308Z,1022.56
2019-01-10T01:30:38.324Z,1022.61
2019-01-10T01:31:38.339Z,1022.58
2019-01-10T01:32:38.133Z,1022.61
2019-01-10T01:33:39.469Z,1022.6
2019-01-10T01:34:38.135Z,1022.63
2019-01-10T01:35:38.352Z,1022.64
2019-01-10T01:36:38.038Z,1022.66
2019-01-10T01:37:38.138Z,1022.66
2019-01-10T01:38:38.248Z,1022.68
2019-01-10T01:39:38.412Z,1022.69
2019-01-10T01:40:38.329Z,1022.74
2019-01-10T01:41:38.091Z,1022.75
2019-01-10T01:42:38.013Z,1022.77
2019-01-10T01:43:38.331Z,1022.75
2019-01-10T01:44:37.887Z,1022.78
2019-01-10T01:45:38.369Z,1022.8
2019-01-10T01:46:38.152Z,1022.75
2019-01-10T01:47:37.928Z,1022.78
2019-01-10T01:48:37.950Z,1022.77
2019-01-10T01:49:38.059Z,1022.77
2019-01-10T01:50:38.254Z,1022.79
2019-01-10T01:51:38.069Z,1022.79
2019-01-10T01:52:38.170Z,1022.79
2019-01-10T01:53:37.913Z,1022.83
2019-01-10T01:54:38.069Z,1022.8
2019-01-10T01:55:37.840Z,1022.8
2019-01-10T01:56:38.183Z,1022.84
2019-01-10T01:57:38.006Z,1022.83
2019-01-10T01:58:38.315Z,1022.85
2019-01-10T01:59:38.191Z,1022.87
2019-01-10T02:00:38.101Z,1022.86
2019-01-10T02:01:37.987Z,1022.87
2019-01-10T02:02:38.281Z,1022.86
2019-01-10T02:03:38.332Z,1022.85
2019-01-10T02:04:38.547Z,1022.85
2019-01-10T02:05:38.137Z,1022.86
2019-01-10T02:06:38.482Z,1022.87
2019-01-10T02:07:38.281Z,1022.91
2019-01-10T02:08:37.997Z,1022.93
2019-01-10T02:09:38.070Z,1022.96
2019-01-10T02:10:37.895Z,1022.94
2019-01-10T02:11:38.296Z,1022.97
2019-01-10T02:12:37.960Z,1023
2019-01-10T02:13:38.031Z,1023.03
2019-01-10T02:14:38.122Z,1023.04
2019-01-10T02:15:38.097Z,1023.07
2019-01-10T02:16:38.034Z,1023.06
2019-01-10T02:17:38.155Z,1023.05
2019-01-10T02:18:38.266Z,1023.07
2019-01-10T02:19:38.363Z,1023.08
2019-01-10T02:20:38.391Z,1023.06
2019-01-10T02:21:38.142Z,1023.07
2019-01-10T02:22:38.770Z,1023.06
2019-01-10T02:23:38.154Z,1023.07
2019-01-10T02:24:38.317Z,1023.03
2019-01-10T02:25:38.232Z,1023.09
2019-01-10T02:26:38.212Z,1023.06
2019-01-10T02:27:38.203Z,1023.1
2019-01-10T02:28:38.106Z,1023.1
2019-01-10T02:29:37.977Z,1023.1
2019-01-10T02:30:42.695Z,1023.1
2019-01-10T02:31:38.527Z,1023.14
2019-01-10T02:32:37.946Z,1023.09
2019-01-10T02:33:38.003Z,1023.06
2019-01-10T02:34:38.220Z,1023.12
2019-01-10T02:35:38.208Z,1023.13
2019-01-10T02:36:38.066Z,1023.15
2019-01-10T02:37:38.343Z,1023.16
2019-01-10T02:38:38.178Z,1023.14
2019-01-10T02:39:39.934Z,1023.13
2019-01-10T02:40:38.873Z,1023.14
2019-01-10T02:41:38.012Z,1023.08
2019-01-10T02:42:38.373Z,1023.11
2019-01-10T02:43:37.799Z,1023.11
2019-01-10T02:44:38.367Z,1023.08
2019-01-10T02:45:38.026Z,1023.07
2019-01-10T02:46:37.933Z,1023.14
2019-01-10T02:47:38.029Z,1023.12
2019-01-10T02:48:39.987Z,1023.09
2019-01-10T02:49:37.905Z,1023.12
2019-01-10T02:50:37.943Z,1023.07
2019-01-10T02:51:38.341Z,1023.08
2019-01-10T02:52:37.870Z,1023.08
2019-01-10T02:53:38.207Z,1023.07
2019-01-10T02:54:38.131Z,1023.05
2019-01-10T02:55:38.597Z,1023.06
2019-01-10T02:56:38.241Z,1023.04
2019-01-10T02:57:38.616Z,1023.03
2019-01-10T02:58:37.930Z,1023.06
2019-01-10T02:59:38.318Z,1023.07
2019-01-10T03:00:38.183Z,1023.06
2019-01-10T03:01:37.951Z,1023.08
2019-01-10T03:02:38.152Z,1023.11
2019-01-10T03:03:37.844Z,1023.08
2019-01-10T03:04:38.036Z,1023.06
2019-01-10T03:05:38.145Z,1023.01
2019-01-10T03:06:38.006Z,1023.01
2019-01-10T03:07:38.044Z,1023.01
2019-01-10T03:08:38.712Z,1022.98
2019-01-10T03:09:37.871Z,1022.98
2019-01-10T03:10:38.321Z,1023
2019-01-10T03:11:38.252Z,1022.96
2019-01-10T03:12:38.067Z,1022.95
2019-01-10T03:13:38.364Z,1022.94
2019-01-10T03:14:38.712Z,1022.92
2019-01-10T03:15:39.814Z,1022.86
2019-01-10T03:16:38.091Z,1022.9
2019-01-10T03:17:37.821Z,1022.9
2019-01-10T03:18:39.836Z,1022.85
2019-01-10T03:19:38.260Z,1022.86
2019-01-10T03:20:38.700Z,1022.82
2019-01-10T03:21:38.296Z,1022.78
2019-01-10T03:22:38.475Z,1022.84
2019-01-10T03:23:37.890Z,1022.85
2019-01-10T03:24:38.061Z,1022.87
2019-01-10T03:25:37.893Z,1022.86
2019-01-10T03:26:39.868Z,1022.85
2019-01-10T03:27:38.092Z,1022.86
2019-01-10T03:28:37.906Z,1022.84
2019-01-10T03:29:37.964Z,1022.83
2019-01-10T03:30:38.054Z,1022.81
2019-01-10T03:31:37.987Z,1022.82
2019-01-10T03:32:38.329Z,1022.84
2019-01-10T03:33:38.301Z,1022.82
2019-01-10T03:34:37.944Z,1022.79
2019-01-10T03:35:38.063Z,1022.78
2019-01-10T03:36:38.031Z,1022.75
2019-01-10T03:37:37.959Z,1022.8
2019-01-10T03:38:38.371Z,1022.82
2019-01-10T03:39:38.136Z,1022.78
2019-01-10T03:40:38.248Z,1022.8
2019-01-10T03:41:38.281Z,1022.82
2019-01-10T03:42:37.915Z,1022.85
2019-01-10T03:43:47.928Z,1022.83
2019-01-10T03:44:38.164Z,1022.86
2019-01-10T03:45:38.111Z,1022.9
2019-01-10T03:46:37.937Z,1022.87
2019-01-10T03:47:38.043Z,1022.86
2019-01-10T03:48:38.567Z,1022.87
2019-01-10T03:49:38.163Z,1022.89
2019-01-10T03:50:38.249Z,1022.85
2019-01-10T03:51:38.294Z,1022.85
2019-01-10T03:52:37.972Z,1022.84
2019-01-10T03:53:38.318Z,1022.85
2019-01-10T03:54:38.024Z,1022.85
2019-01-10T03:55:38.112Z,1022.87
2019-01-10T03:56:39.935Z,1022.87
2019-01-10T03:57:38.581Z,1022.89
2019-01-10T03:58:38.179Z,1022.93
2019-01-10T03:59:38.685Z,1022.9
2019-01-10T04:00:38.271Z,1022.87
2019-01-10T04:01:38.264Z,1022.87
2019-01-10T04:02:38.422Z,1022.9
2019-01-10T04:03:37.921Z,1022.92
2019-01-10T04:04:38.016Z,1022.94
2019-01-10T04:05:39.235Z,1022.92
2019-01-10T04:06:40.027Z,1022.96
2019-01-10T04:07:39.927Z,1022.93
2019-01-10T04:08:38.177Z,1022.95
2019-01-10T04:09:38.170Z,1022.95
2019-01-10T04:10:38.461Z,1022.94
2019-01-10T04:11:38.148Z,1022.93
2019-01-10T04:12:38.233Z,1022.97
2019-01-10T04:13:38.133Z,1023.03
2019-01-10T04:14:38.170Z,1023.02
2019-01-10T04:15:38.175Z,1023.01
2019-01-10T04:16:39.960Z,1023
2019-01-10T04:17:38.185Z,1023.03
2019-01-10T04:18:38.248Z,1023.02
2019-01-10T04:19:37.934Z,1023.02
2019-01-10T04:20:38.026Z,1023.02
2019-01-10T04:21:38.032Z,1023.01
2019-01-10T04:22:38.459Z,1023
2019-01-10T04:23:37.884Z,1023.06
2019-01-10T04:24:37.982Z,1023.06
2019-01-10T04:25:37.886Z,1023.03
2019-01-10T04:26:37.909Z,1023.05
2019-01-10T04:27:38.103Z,1023.13
2019-01-10T04:28:37.851Z,1023.09
2019-01-10T04:29:38.143Z,1023.09
2019-01-10T04:30:38.023Z,1023.06
2019-01-10T04:31:37.887Z,1023.06
2019-01-10T04:32:37.987Z,1023.09
2019-01-10T04:33:38.041Z,1023.11
2019-01-10T04:34:37.983Z,1023.12
2019-01-10T04:35:38.110Z,1023.11
2019-01-10T04:36:38.235Z,1023.15
2019-01-10T04:37:38.334Z,1023.16
2019-01-10T04:38:38.216Z,1023.14
2019-01-10T04:39:38.005Z,1023.15
2019-01-10T04:40:37.941Z,1023.14
2019-01-10T04:41:38.442Z,1023.16
2019-01-10T04:42:37.777Z,1023.17
2019-01-10T04:43:38.039Z,1023.16
2019-01-10T04:44:40.194Z,1023.2
2019-01-10T04:45:38.202Z,1023.23
2019-01-10T04:46:38.085Z,1023.22
2019-01-10T04:47:37.970Z,1023.19
2019-01-10T04:48:38.255Z,1023.24
2019-01-10T04:49:38.257Z,1023.23
2019-01-10T04:50:37.909Z,1023.25
2019-01-10T04:51:38.218Z,1023.25
2019-01-10T04:52:38.387Z,1023.29
2019-01-10T04:53:38.149Z,1023.33
2019-01-10T04:54:38.707Z,1023.32
2019-01-10T04:55:38.527Z,1023.32
2019-01-10T04:56:38.285Z,1023.34
2019-01-10T04:57:37.893Z,1023.33
2019-01-10T04:58:38.493Z,1023.32
2019-01-10T04:59:37.919Z,1023.33
2019-01-10T05:00:38.055Z,1023.33
2019-01-10T05:01:37.990Z,1023.34
2019-01-10T05:02:38.311Z,1023.38
2019-01-10T05:03:37.919Z,1023.39
2019-01-10T05:04:38.480Z,1023.44
2019-01-10T05:05:38.202Z,1023.39
2019-01-10T05:06:38.282Z,1023.45
2019-01-10T05:07:38.269Z,1023.41
2019-01-10T05:08:38.645Z,1023.47
2019-01-10T05:09:38.304Z,1023.49
2019-01-10T05:10:37.880Z,1023.5
2019-01-10T05:11:38.156Z,1023.48
2019-01-10T05:12:38.073Z,1023.52
2019-01-10T05:13:37.962Z,1023.5
2019-01-10T05:14:38.280Z,1023.5
2019-01-10T05:15:38.384Z,1023.49
2019-01-10T05:16:37.920Z,1023.49
2019-01-10T05:17:38.079Z,1023.53
2019-01-10T05:18:38.755Z,1023.54
2019-01-10T05:19:37.838Z,1023.52
2019-01-10T05:20:38.072Z,1023.51
2019-01-10T05:21:37.798Z,1023.52
2019-01-10T05:22:37.873Z,1023.53
2019-01-10T05:23:38.248Z,1023.49
2019-01-10T05:24:38.020Z,1023.55
2019-01-10T05:25:37.899Z,1023.54
2019-01-10T05:26:38.100Z,1023.62
2019-01-10T05:27:38.091Z,1023.57
2019-01-10T05:28:38.004Z,1023.54
2019-01-10T05:29:38.022Z,1023.55
2019-01-10T05:30:37.912Z,1023.54
2019-01-10T05:31:38.023Z,1023.54
2019-01-10T05:32:37.784Z,1023.54
2019-01-10T05:33:37.863Z,1023.49
2019-01-10T05:34:38.057Z,1023.46
2019-01-10T05:35:37.939Z,1023.55
2019-01-10T05:36:38.239Z,1023.49
2019-01-10T05:37:38.347Z,1023.51
2019-01-10T05:38:38.467Z,1023.53
2019-01-10T05:39:48.103Z,1023.52
2019-01-10T05:40:37.983Z,1023.55
2019-01-10T05:41:38.045Z,1023.52
2019-01-10T05:42:38.096Z,1023.56
2019-01-10T05:43:38.416Z,1023.54
2019-01-10T05:44:38.199Z,1023.53
2019-01-10T05:45:37.872Z,1023.51
2019-01-10T05:46:49.066Z,1023.54
2019-01-10T05:47:38.326Z,1023.56
2019-01-10T05:48:39.745Z,1023.56
2019-01-10T05:49:38.250Z,1023.58
2019-01-10T05:50:38.015Z,1023.62
2019-01-10T05:51:37.871Z,1023.62
2019-01-10T05:52:37.896Z,1023.6
2019-01-10T05:53:38.374Z,1023.61
2019-01-10T05:54:38.275Z,1023.62
2019-01-10T05:55:38.119Z,1023.66
2019-01-10T05:56:38.308Z,1023.69
2019-01-10T05:57:39.816Z,1023.71
2019-01-10T05:58:38.193Z,1023.7
2019-01-10T05:59:37.968Z,1023.73
2019-01-10T06:00:39.889Z,1023.67
2019-01-10T06:01:38.299Z,1023.69
2019-01-10T06:02:38.129Z,1023.65
2019-01-10T06:03:38.261Z,1023.68
2019-01-10T06:04:38.341Z,1023.69
2019-01-10T06:05:37.940Z,1023.69
2019-01-10T06:06:38.225Z,1023.7
2019-01-10T06:07:37.798Z,1023.68
2019-01-10T06:08:37.887Z,1023.65
2019-01-10T06:09:37.959Z,1023.7
2019-01-10T06:10:38.259Z,1023.71
2019-01-10T06:11:38.308Z,1023.71
2019-01-10T06:12:38.399Z,1023.7
2019-01-10T06:13:37.833Z,1023.69
2019-01-10T06:14:38.207Z,1023.73
2019-01-10T06:15:38.395Z,1023.76
2019-01-10T06:16:39.764Z,1023.75
2019-01-10T06:17:39.832Z,1023.76
2019-01-10T06:18:37.864Z,1023.79
2019-01-10T06:19:37.941Z,1023.81
2019-01-10T06:20:38.045Z,1023.77
2019-01-10T06:21:38.131Z,1023.81
2019-01-10T06:22:38.198Z,1023.8
2019-01-10T06:23:39.877Z,1023.81
2019-01-10T06:24:37.876Z,1023.79
2019-01-10T06:25:37.971Z,1023.85
2019-01-10T06:26:37.953Z,1023.86
2019-01-10T06:27:37.896Z,1023.86
2019-01-10T06:28:38.788Z,1023.93
2019-01-10T06:29:38.217Z,1023.93
2019-01-10T06:30:38.212Z,1023.94
2019-01-10T06:31:38.173Z,1023.93
2019-01-10T06:32:37.957Z,1023.93
2019-01-10T06:33:37.836Z,1023.97
2019-01-10T06:34:38.012Z,1023.99
2019-01-10T06:35:37.794Z,1023.99
2019-01-10T06:36:38.394Z,1024.05
2019-01-10T06:37:38.266Z,1024.09
2019-01-10T06:38:38.053Z,1024.08
2019-01-10T06:39:37.995Z,1024.05
2019-01-10T06:40:38.004Z,1024.06
2019-01-10T06:41:38.217Z,1024.04
2019-01-10T06:42:38.323Z,1024.07
2019-01-10T06:43:38.822Z,1024.08
2019-01-10T06:44:45.003Z,1024.11
2019-01-10T06:45:37.932Z,1024.14
2019-01-10T06:46:38.379Z,1024.13
2019-01-10T06:47:38.255Z,1024.11
2019-01-10T06:48:37.880Z,1024.13
2019-01-10T06:49:38.218Z,1024.2
2019-01-10T06:50:39.358Z,1024.18
2019-01-10T06:51:37.856Z,1024.26
2019-01-10T06:52:38.691Z,1024.31
2019-01-10T06:53:38.183Z,1024.31
2019-01-10T06:54:37.942Z,1024.3
2019-01-10T06:55:38.026Z,1024.34
2019-01-10T06:56:37.913Z,1024.36
2019-01-10T06:57:37.937Z,1024.33
2019-01-10T06:58:37.932Z,1024.35
2019-01-10T06:59:37.754Z,1024.39
2019-01-10T07:00:37.822Z,1024.36
2019-01-10T07:01:38.025Z,1024.4
2019-01-10T07:02:37.744Z,1024.38
2019-01-10T07:03:37.929Z,1024.42
2019-01-10T07:04:38.010Z,1024.41
2019-01-10T07:05:37.759Z,1024.43
2019-01-10T07:06:38.258Z,1024.38
2019-01-10T07:07:38.292Z,1024.37
2019-01-10T07:08:38.100Z,1024.37
2019-01-10T07:09:37.960Z,1024.4
2019-01-10T07:10:38.092Z,1024.43
2019-01-10T07:11:37.800Z,1024.44
2019-01-10T07:12:40.025Z,1024.47
2019-01-10T07:13:38.026Z,1024.49
2019-01-10T07:14:37.905Z,1024.46
2019-01-10T07:15:39.540Z,1024.46
2019-01-10T07:16:37.967Z,1024.48
2019-01-10T07:17:38.083Z,1024.5
2019-01-10T07:18:37.963Z,1024.5
2019-01-10T07:19:37.931Z,1024.51
2019-01-10T07:20:38.018Z,1024.52
2019-01-10T07:21:37.897Z,1024.54
2019-01-10T07:22:37.985Z,1024.51
2019-01-10T07:23:38.095Z,1024.51
2019-01-10T07:24:38.249Z,1024.48
2019-01-10T07:25:37.949Z,1024.5
2019-01-10T07:26:38.516Z,1024.53
2019-01-10T07:27:37.808Z,1024.52
2019-01-10T07:28:38.314Z,1024.52
2019-01-10T07:29:38.943Z,1024.58
2019-01-10T07:30:38.138Z,1024.61
2019-01-10T07:31:37.908Z,1024.6
2019-01-10T07:32:38.271Z,1024.62
2019-01-10T07:33:37.976Z,1024.65
2019-01-10T07:34:38.207Z,1024.65
2019-01-10T07:35:38.497Z,1024.64
2019-01-10T07:36:37.945Z,1024.66
2019-01-10T07:37:38.036Z,1024.64
2019-01-10T07:38:37.942Z,1024.63
2019-01-10T07:39:37.798Z,1024.69
2019-01-10T07:40:38.184Z,1024.69
2019-01-10T07:41:38.098Z,1024.72
2019-01-10T07:42:38.416Z,1024.74
2019-01-10T07:43:40.104Z,1024.79
2019-01-10T07:44:37.796Z,1024.8
2019-01-10T07:45:37.814Z,1024.81
2019-01-10T07:46:37.882Z,1024.84
2019-01-10T07:47:37.703Z,1024.81
2019-01-10T07:48:38.175Z,1024.84
2019-01-10T07:49:38.281Z,1024.81
2019-01-10T07:50:38.373Z,1024.82
2019-01-10T07:51:38.161Z,1024.81
2019-01-10T07:52:38.307Z,1024.8
2019-01-10T07:53:38.303Z,1024.82
2019-01-10T07:54:37.867Z,1024.86
2019-01-10T07:55:38.585Z,1024.9
2019-01-10T07:56:38.069Z,1024.88
2019-01-10T07:57:39.736Z,1024.88
2019-01-10T07:58:39.695Z,1024.9
2019-01-10T07:59:38.374Z,1024.9
2019-01-10T08:00:37.945Z,1024.94
2019-01-10T08:01:37.954Z,1024.89
2019-01-10T08:02:37.729Z,1024.97
2019-01-10T08:03:37.820Z,1024.99
2019-01-10T08:04:38.047Z,1025
2019-01-10T08:05:38.200Z,1025
2019-01-10T08:06:37.884Z,1025.02
2019-01-10T08:07:38.615Z,1025.01
2019-01-10T08:08:38.031Z,1025.05
2019-01-10T08:09:37.824Z,1025.04
2019-01-10T08:10:38.330Z,1025.1
2019-01-10T08:11:37.887Z,1025.1
2019-01-10T08:12:37.879Z,1025.12
2019-01-10T08:13:38.260Z,1025.13
2019-01-10T08:14:38.160Z,1025.13
2019-01-10T08:15:38.238Z,1025.14
2019-01-10T08:16:38.257Z,1025.17
2019-01-10T08:17:38.136Z,1025.17
2019-01-10T08:18:37.967Z,1025.17
2019-01-10T08:19:38.391Z,1025.22
2019-01-10T08:20:37.755Z,1025.24
2019-01-10T08:21:37.841Z,1025.23
2019-01-10T08:22:38.052Z,1025.22
2019-01-10T08:23:39.725Z,1025.26
2019-01-10T08:24:37.911Z,1025.24
2019-01-10T08:25:38.761Z,1025.25
2019-01-10T08:26:37.841Z,1025.26
2019-01-10T08:27:39.791Z,1025.25
2019-01-10T08:28:37.965Z,1025.29
2019-01-10T08:29:37.782Z,1025.3
2019-01-10T08:30:38.675Z,1025.33
2019-01-10T08:31:38.438Z,1025.32
2019-01-10T08:32:37.822Z,1025.34
2019-01-10T08:33:37.805Z,1025.33
2019-01-10T08:34:38.288Z,1025.33
2019-01-10T08:35:38.087Z,1025.32
2019-01-10T08:36:37.933Z,1025.33
2019-01-10T08:37:38.011Z,1025.41
2019-01-10T08:38:38.011Z,1025.4
2019-01-10T08:39:37.958Z,1025.43
2019-01-10T08:40:38.019Z,1025.4
2019-01-10T08:41:37.852Z,1025.41
2019-01-10T08:42:38.165Z,1025.36
2019-01-10T08:43:38.017Z,1025.4
2019-01-10T08:44:38.037Z,1025.38
2019-01-10T08:45:37.809Z,1025.37
2019-01-10T08:46:38.170Z,1025.35
2019-01-10T08:47:37.924Z,1025.4
2019-01-10T08:48:38.188Z,1025.4
2019-01-10T08:49:38.156Z,1025.39
2019-01-10T08:50:37.792Z,1025.37
2019-01-10T08:51:38.388Z,1025.39
2019-01-10T08:52:37.945Z,1025.37
2019-01-10T08:53:37.940Z,1025.42
2019-01-10T08:54:37.818Z,1025.46
2019-01-10T08:55:38.146Z,1025.46
2019-01-10T08:56:38.037Z,1025.52
2019-01-10T08:57:37.924Z,1025.47
2019-01-10T08:58:37.856Z,1025.45
2019-01-10T08:59:37.973Z,1025.45
2019-01-10T09:00:38.962Z,1025.46
2019-01-10T09:01:38.027Z,1025.44
2019-01-10T09:02:38.178Z,1025.49
2019-01-10T09:03:38.110Z,1025.5
2019-01-10T09:04:37.929Z,1025.54
2019-01-10T09:05:38.334Z,1025.51
2019-01-10T09:06:38.110Z,1025.51
2019-01-10T09:07:38.466Z,1025.47
2019-01-10T09:08:38.282Z,1025.51
2019-01-10T09:09:38.649Z,1025.51
2019-01-10T09:10:37.948Z,1025.51
2019-01-10T09:11:39.968Z,1025.51
2019-01-10T09:12:38.067Z,1025.55
2019-01-10T09:13:37.911Z,1025.56
2019-01-10T09:14:38.219Z,1025.6
2019-01-10T09:15:37.774Z,1025.56
2019-01-10T09:16:38.374Z,1025.57
2019-01-10T09:17:38.802Z,1025.59
2019-01-10T09:18:38.070Z,1025.58
2019-01-10T09:19:37.873Z,1025.6
2019-01-10T09:20:38.211Z,1025.65
2019-01-10T09:21:37.926Z,1025.63
2019-01-10T09:22:37.700Z,1025.65
2019-01-10T09:23:38.643Z,1025.69
2019-01-10T09:24:38.667Z,1025.69
2019-01-10T09:25:37.870Z,1025.73
2019-01-10T09:26:38.228Z,1025.73
2019-01-10T09:27:38.651Z,1025.71
2019-01-10T09:28:38.275Z,1025.73
2019-01-10T09:29:39.628Z,1025.74
2019-01-10T09:30:38.875Z,1025.71
2019-01-10T09:31:37.937Z,1025.75
2019-01-10T09:32:38.095Z,1025.78
2019-01-10T09:33:39.851Z,1025.74
2019-01-10T09:34:38.143Z,1025.82
2019-01-10T09:35:38.067Z,1025.79
2019-01-10T09:36:37.931Z,1025.81
2019-01-10T09:37:38.868Z,1025.81
2019-01-10T09:38:38.034Z,1025.84
2019-01-10T09:39:38.249Z,1025.82
2019-01-10T09:40:40.158Z,1025.9
2019-01-10T09:41:37.889Z,1025.89
2019-01-10T09:42:37.932Z,1025.89
2019-01-10T09:43:38.198Z,1025.92
2019-01-10T09:44:38.479Z,1025.93
2019-01-10T09:45:43.700Z,1025.96
2019-01-10T09:46:38.295Z,1025.96
2019-01-10T09:47:37.985Z,1025.96
2019-01-10T09:48:37.807Z,1025.99
2019-01-10T09:49:37.964Z,1025.99
2019-01-10T09:50:38.675Z,1026.01
2019-01-10T09:51:37.785Z,1025.98
2019-01-10T09:52:38.465Z,1025.98
2019-01-10T09:53:39.389Z,1025.97
2019-01-10T09:54:39.456Z,1025.97
2019-01-10T09:55:37.904Z,1026
2019-01-10T09:56:38.050Z,1025.94
2019-01-10T09:57:37.763Z,1025.98
2019-01-10T09:58:38.074Z,1025.97
2019-01-10T09:59:38.152Z,1025.99
2019-01-10T10:00:38.098Z,1026.03
2019-01-10T10:01:38.052Z,1026.06
2019-01-10T10:02:38.216Z,1026.04
2019-01-10T10:03:38.335Z,1026.01
2019-01-10T10:04:38.633Z,1026.06
2019-01-10T10:05:37.702Z,1026.05
2019-01-10T10:06:37.846Z,1026.09
2019-01-10T10:07:37.991Z,1026.11
2019-01-10T10:08:38.596Z,1026.16
2019-01-10T10:09:38.051Z,1026.13
2019-01-10T10:10:38.059Z,1026.18
2019-01-10T10:11:38.070Z,1026.2
2019-01-10T10:12:38.306Z,1026.17
2019-01-10T10:13:38.174Z,1026.14
2019-01-10T10:14:39.921Z,1026.12
2019-01-10T10:15:37.824Z,1026.16
2019-01-10T10:16:39.829Z,1026.13
2019-01-10T10:17:37.843Z,1026.17
2019-01-10T10:18:38.529Z,1026.14
2019-01-10T10:19:37.935Z,1026.13
2019-01-10T10:20:37.776Z,1026.14
2019-01-10T10:21:38.141Z,1026.13
2019-01-10T10:22:38.041Z,1026.16
2019-01-10T10:23:38.826Z,1026.16
2019-01-10T10:24:37.965Z,1026.2
2019-01-10T10:25:38.264Z,1026.15
2019-01-10T10:26:38.073Z,1026.11
2019-01-10T10:27:37.829Z,1026.12
2019-01-10T10:28:37.956Z,1026.13
2019-01-10T10:29:37.978Z,1026.21
2019-01-10T10:30:37.894Z,1026.2
2019-01-10T10:31:38.086Z,1026.2
2019-01-10T10:32:37.816Z,1026.18
2019-01-10T10:33:37.903Z,1026.16
2019-01-10T10:34:38.044Z,1026.23
2019-01-10T10:35:37.750Z,1026.2
2019-01-10T10:36:38.038Z,1026.19
2019-01-10T10:37:38.001Z,1026.19
2019-01-10T10:38:37.928Z,1026.22
2019-01-10T10:39:37.892Z,1026.21
2019-01-10T10:40:38.046Z,1026.24
2019-01-10T10:41:37.955Z,1026.21
2019-01-10T10:42:38.821Z,1026.22
2019-01-10T10:43:37.815Z,1026.22
2019-01-10T10:44:38.018Z,1026.22
2019-01-10T10:45:37.650Z,1026.23
2019-01-10T10:46:39.257Z,1026.23
2019-01-10T10:47:37.681Z,1026.22
2019-01-10T10:48:37.742Z,1026.23
2019-01-10T10:49:38.042Z,1026.21
2019-01-10T10:50:38.248Z,1026.22
2019-01-10T10:51:37.921Z,1026.19
2019-01-10T10:52:37.873Z,1026.19
2019-01-10T10:53:37.915Z,1026.18
2019-01-10T10:54:37.868Z,1026.17
2019-01-10T10:55:38.201Z,1026.17
2019-01-10T10:56:37.788Z,1026.19
2019-01-10T10:57:37.880Z,1026.17
2019-01-10T10:58:38.312Z,1026.18
2019-01-10T10:59:38.186Z,1026.19
2019-01-10T11:00:37.757Z,1026.18
2019-01-10T11:01:37.977Z,1026.14
2019-01-10T11:02:38.027Z,1026.11
2019-01-10T11:03:39.026Z,1026.15
2019-01-10T11:04:38.352Z,1026.16
2019-01-10T11:05:38.029Z,1026.14
2019-01-10T11:06:38.461Z,1026.12
2019-01-10T11:07:38.033Z,1026.14
2019-01-10T11:08:37.679Z,1026.12
2019-01-10T11:09:38.791Z,1026.16
2019-01-10T11:10:38.392Z,1026.16
2019-01-10T11:11:38.150Z,1026.13
2019-01-10T11:12:37.734Z,1026.09
2019-01-10T11:13:38.256Z,1026.15
2019-01-10T11:14:38.327Z,1026.14
2019-01-10T11:15:37.800Z,1026.15
2019-01-10T11:16:38.131Z,1026.15
2019-01-10T11:17:37.614Z,1026.13
2019-01-10T11:18:37.843Z,1026.11
2019-01-10T11:19:38.202Z,1026.11
2019-01-10T11:20:37.784Z,1026.11
2019-01-10T11:21:37.857Z,1026.08
2019-01-10T11:22:37.913Z,1026.07
2019-01-10T11:23:37.627Z,1026.05
2019-01-10T11:24:38.894Z,1026.08
2019-01-10T11:25:38.997Z,1026.08
2019-01-10T11:26:37.994Z,1026.1
2019-01-10T11:27:37.724Z,1026.12
2019-01-10T11:28:37.889Z,1026.1
2019-01-10T11:29:37.897Z,1026.09
2019-01-10T11:30:39.697Z,1026.14
2019-01-10T11:31:38.300Z,1026.09
2019-01-10T11:32:37.848Z,1026.1
2019-01-10T11:33:37.884Z,1026.12
2019-01-10T11:34:37.924Z,1026.09
2019-01-10T11:35:37.725Z,1026.12
2019-01-10T11:36:39.316Z,1026.12
2019-01-10T11:37:38.376Z,1026.11
2019-01-10T11:38:37.766Z,1026.1
2019-01-10T11:39:37.830Z,1026.11
2019-01-10T11:40:38.371Z,1026.11
2019-01-10T11:41:37.773Z,1026.08
2019-01-10T11:42:37.842Z,1026.07
2019-01-10T11:43:38.080Z,1026.07
2019-01-10T11:44:37.897Z,1026.07
2019-01-10T11:45:37.735Z,1026.05
2019-01-10T11:46:37.845Z,1026.05
2019-01-10T11:47:38.025Z,1026.06
2019-01-10T11:48:37.876Z,1026.04
2019-01-10T11:49:39.563Z,1026.02
2019-01-10T11:50:38.879Z,1026.05
2019-01-10T11:51:38.157Z,1026.03
2019-01-10T11:52:38.690Z,1026.05
2019-01-10T11:53:38.305Z,1026.09
2019-01-10T11:54:38.086Z,1026.06
2019-01-10T11:55:38.414Z,1026.06
2019-01-10T11:56:38.013Z,1026.08
2019-01-10T11:57:38.031Z,1026.05
2019-01-10T11:58:39.771Z,1026.02
2019-01-10T11:59:37.922Z,1026.01
2019-01-10T12:00:37.691Z,1026.05
2019-01-10T12:01:37.835Z,1026.05
2019-01-10T12:02:38.147Z,1026.04
2019-01-10T12:03:37.963Z,1026.02
2019-01-10T12:04:37.875Z,1026.08
2019-01-10T12:05:37.688Z,1026.06
2019-01-10T12:06:38.079Z,1026.04
2019-01-10T12:07:38.810Z,1026.06
2019-01-10T12:08:38.340Z,1026.03